Altus, Oklahoma
Current Conditions -  °F | °C
As of 9:08 PM on Wednesday 22 Oct 2014 (Local Time) from KLTS Reporting Station
Scattered Clouds Scattered Clouds  
Wind Chill: 59°   Ceiling: Unl
Heat Index: 59°   Visibility: 10mi
Dew Point: 59°   Wind: 3mph
Humidity: 100%   Direction: 100°E
Pressure: 30.11"   Gusts: NA
Location:  34.64°N, 99.33°W
Report Text: KLTS 230208Z AUTO 10003KT 10SM SCT060 15/15 A3011 RMK AO2 $
Loading
Personal Weather Stations






























Interactive Weather Map
Tropical Storm Tracking
New forecast layout! Learn more

10-Day Weather Forecast

Advertisements
Track Severe Weather on mobile